createdAt,value
2018-04-22T00:00:25.823Z,1012.89
2018-04-22T00:01:04.819Z,1012.87
2018-04-22T00:02:25.847Z,1012.88
2018-04-22T00:03:04.819Z,1012.90
2018-04-22T00:04:04.831Z,1012.87
2018-04-22T00:05:25.848Z,1012.87
2018-04-22T00:06:04.827Z,1012.87
2018-04-22T00:07:25.808Z,1012.83
2018-04-22T00:08:04.814Z,1012.82
2018-04-22T00:09:04.819Z,1012.87
2018-04-22T00:10:25.810Z,1012.79
2018-04-22T00:11:04.768Z,1012.78
2018-04-22T00:12:25.777Z,1012.77
2018-04-22T00:13:04.783Z,1012.80
2018-04-22T00:14:04.797Z,1012.81
2018-04-22T00:15:25.799Z,1012.78
2018-04-22T00:16:04.801Z,1012.76
2018-04-22T00:17:25.796Z,1012.76
2018-04-22T00:18:04.806Z,1012.79
2018-04-22T00:19:04.811Z,1012.77
2018-04-22T00:20:25.799Z,1012.76
2018-04-22T00:21:04.771Z,1012.73
2018-04-22T00:22:25.787Z,1012.75
2018-04-22T00:23:04.777Z,1012.75
2018-04-22T00:24:04.767Z,1012.71
2018-04-22T00:25:25.803Z,1012.71
2018-04-22T00:26:04.747Z,1012.69
2018-04-22T00:27:25.717Z,1012.67
2018-04-22T00:28:04.722Z,1012.67
2018-04-22T00:29:04.718Z,1012.65
2018-04-22T00:30:25.729Z,1012.64
2018-04-22T00:31:04.718Z,1012.62
2018-04-22T00:32:25.733Z,1012.58
2018-04-22T00:33:04.731Z,1012.57
2018-04-22T00:34:04.716Z,1012.54
2018-04-22T00:35:25.737Z,1012.52
2018-04-22T00:36:04.758Z,1012.50
2018-04-22T00:37:25.702Z,1012.50
2018-04-22T00:38:04.663Z,1012.50
2018-04-22T00:39:04.708Z,1012.47
2018-04-22T00:40:25.701Z,1012.44
2018-04-22T00:41:04.684Z,1012.43
2018-04-22T00:42:25.682Z,1012.45
2018-04-22T00:43:04.713Z,1012.43
2018-04-22T00:44:04.696Z,1012.42
2018-04-22T00:45:25.743Z,1012.39
2018-04-22T00:46:04.672Z,1012.39
2018-04-22T00:47:25.673Z,1012.39
2018-04-22T00:48:04.687Z,1012.41
2018-04-22T00:49:04.701Z,1012.40
2018-04-22T00:50:25.668Z,1012.36
2018-04-22T00:51:04.670Z,1012.40
2018-04-22T00:52:25.669Z,1012.40
2018-04-22T00:53:04.661Z,1012.36
2018-04-22T00:54:04.660Z,1012.36
2018-04-22T00:55:25.650Z,1012.30
2018-04-22T00:56:04.659Z,1012.32
2018-04-22T00:57:25.649Z,1012.30
2018-04-22T00:58:04.617Z,1012.27
2018-04-22T00:59:04.624Z,1012.24
2018-04-22T01:00:25.658Z,1012.23
2018-04-22T01:01:04.632Z,1012.19
2018-04-22T01:02:25.629Z,1012.23
2018-04-22T01:03:04.644Z,1012.19
2018-04-22T01:04:04.658Z,1012.18
2018-04-22T01:05:25.644Z,1012.17
2018-04-22T01:06:04.598Z,1012.13
2018-04-22T01:07:25.608Z,1012.14
2018-04-22T01:08:04.596Z,1012.13
2018-04-22T01:09:04.606Z,1012.11
2018-04-22T01:10:25.634Z,1012.13
2018-04-22T01:11:04.628Z,1012.15
2018-04-22T01:12:25.597Z,1012.11
2018-04-22T01:13:04.597Z,1012.11
2018-04-22T01:14:04.591Z,1012.10
2018-04-22T01:15:25.590Z,1012.07
2018-04-22T01:16:04.596Z,1012.08
2018-04-22T01:17:25.599Z,1012.06
2018-04-22T01:18:04.580Z,1012.07
2018-04-22T01:19:04.580Z,1012.06
2018-04-22T01:20:25.576Z,1012.02
2018-04-22T01:21:04.587Z,1012.00
2018-04-22T01:22:25.571Z,1011.99
2018-04-22T01:23:04.561Z,1012.00
2018-04-22T01:24:04.554Z,1012.00
2018-04-22T01:25:25.558Z,1011.94
2018-04-22T01:26:04.569Z,1011.97
2018-04-22T01:27:25.583Z,1011.94
2018-04-22T01:28:04.527Z,1011.93
2018-04-22T01:29:04.545Z,1011.95
2018-04-22T01:30:25.559Z,1011.92
2018-04-22T01:31:04.529Z,1011.92
2018-04-22T01:32:25.594Z,1011.92
2018-04-22T01:33:04.509Z,1011.90
2018-04-22T01:34:04.508Z,1011.87
2018-04-22T01:35:25.535Z,1011.83
2018-04-22T01:36:04.511Z,1011.86
2018-04-22T01:37:25.519Z,1011.84
2018-04-22T01:38:04.534Z,1011.87
2018-04-22T01:39:04.524Z,1011.87
2018-04-22T01:40:25.525Z,1011.90
2018-04-22T01:41:04.501Z,1011.89
2018-04-22T01:42:25.499Z,1011.83
2018-04-22T01:43:04.515Z,1011.85
2018-04-22T01:44:04.504Z,1011.82
2018-04-22T01:45:25.460Z,1011.84
2018-04-22T01:46:04.498Z,1011.83
2018-04-22T01:47:25.480Z,1011.83
2018-04-22T01:48:04.510Z,1011.79
2018-04-22T01:49:04.481Z,1011.81
2018-04-22T01:50:25.509Z,1011.73
2018-04-22T01:51:04.462Z,1011.79
2018-04-22T01:52:25.482Z,1011.77
2018-04-22T01:53:04.457Z,1011.75
2018-04-22T01:54:04.446Z,1011.70
2018-04-22T01:55:25.452Z,1011.73
2018-04-22T01:56:04.446Z,1011.71
2018-04-22T01:57:25.445Z,1011.73
2018-04-22T01:58:04.446Z,1011.73
2018-04-22T01:59:04.439Z,1011.67
2018-04-22T02:00:25.451Z,1011.67
2018-04-22T02:01:04.426Z,1011.69
2018-04-22T02:02:25.435Z,1011.70
2018-04-22T02:03:04.470Z,1011.67
2018-04-22T02:04:04.424Z,1011.62
2018-04-22T02:05:25.430Z,1011.64
2018-04-22T02:06:04.420Z,1011.62
2018-04-22T02:07:25.443Z,1011.65
2018-04-22T02:08:04.395Z,1011.65
2018-04-22T02:09:04.423Z,1011.61
2018-04-22T02:10:25.384Z,1011.63
2018-04-22T02:11:04.376Z,1011.61
2018-04-22T02:12:25.431Z,1011.56
2018-04-22T02:13:04.370Z,1011.56
2018-04-22T02:14:04.383Z,1011.58
2018-04-22T02:15:25.393Z,1011.58
2018-04-22T02:16:04.391Z,1011.56
2018-04-22T02:17:25.368Z,1011.56
2018-04-22T02:18:04.899Z,1011.54
2018-04-22T02:19:04.370Z,1011.57
2018-04-22T02:20:25.368Z,1011.52
2018-04-22T02:21:04.388Z,1011.53
2018-04-22T02:22:25.350Z,1011.53
2018-04-22T02:23:04.345Z,1011.52
2018-04-22T02:24:04.344Z,1011.52
2018-04-22T02:25:25.358Z,1011.52
2018-04-22T02:26:04.350Z,1011.46
2018-04-22T02:27:25.374Z,1011.47
2018-04-22T02:28:04.345Z,1011.47
2018-04-22T02:29:04.333Z,1011.42
2018-04-22T02:30:25.354Z,1011.45
2018-04-22T02:31:04.317Z,1011.42
2018-04-22T02:32:25.349Z,1011.39
2018-04-22T02:33:04.325Z,1011.39
2018-04-22T02:34:04.331Z,1011.37
2018-04-22T02:35:25.312Z,1011.39
2018-04-22T02:36:04.337Z,1011.34
2018-04-22T02:37:25.322Z,1011.31
2018-04-22T02:38:04.329Z,1011.27
2018-04-22T02:39:04.358Z,1011.26
2018-04-22T02:40:25.297Z,1011.28
2018-04-22T02:41:04.338Z,1011.27
2018-04-22T02:42:25.306Z,1011.21
2018-04-22T02:43:04.307Z,1011.26
2018-04-22T02:44:04.287Z,1011.27
2018-04-22T02:45:25.307Z,1011.24
2018-04-22T02:46:04.316Z,1011.23
2018-04-22T02:47:25.298Z,1011.21
2018-04-22T02:48:04.286Z,1011.25
2018-04-22T02:49:04.302Z,1011.24
2018-04-22T02:50:25.260Z,1011.19
2018-04-22T02:51:04.264Z,1011.21
2018-04-22T02:52:25.265Z,1011.17
2018-04-22T02:53:04.273Z,1011.16
2018-04-22T02:54:04.265Z,1011.19
2018-04-22T02:55:25.238Z,1011.16
2018-04-22T02:56:04.268Z,1011.22
2018-04-22T02:57:25.275Z,1011.16
2018-04-22T02:58:04.246Z,1011.15
2018-04-22T02:59:04.242Z,1011.19
2018-04-22T03:00:25.256Z,1011.18
2018-04-22T03:01:04.219Z,1011.17
2018-04-22T03:02:25.235Z,1011.13
2018-04-22T03:03:04.242Z,1011.15
2018-04-22T03:04:04.230Z,1011.13
2018-04-22T03:05:25.270Z,1011.13
2018-04-22T03:06:04.242Z,1011.12
2018-04-22T03:07:25.217Z,1011.11
2018-04-22T03:08:04.233Z,1011.11
2018-04-22T03:09:04.161Z,1011.10
2018-04-22T03:10:25.211Z,1011.07
2018-04-22T03:11:04.200Z,1011.08
2018-04-22T03:12:25.241Z,1011.07
2018-04-22T03:13:04.190Z,1011.08
2018-04-22T03:14:04.188Z,1011.05
2018-04-22T03:15:25.189Z,1011.05
2018-04-22T03:16:04.180Z,1011.02
2018-04-22T03:17:25.166Z,1011.03
2018-04-22T03:18:04.168Z,1011.04
2018-04-22T03:19:04.164Z,1011.05
2018-04-22T03:20:25.172Z,1011.03
2018-04-22T03:21:04.160Z,1011.02
2018-04-22T03:22:25.155Z,1011.02
2018-04-22T03:23:04.171Z,1011.02
2018-04-22T03:24:04.136Z,1010.97
2018-04-22T03:25:25.165Z,1010.98
2018-04-22T03:26:04.198Z,1010.99
2018-04-22T03:27:25.143Z,1010.95
2018-04-22T03:28:04.127Z,1010.93
2018-04-22T03:29:04.158Z,1010.89
2018-04-22T03:30:25.138Z,1010.94
2018-04-22T03:31:04.115Z,1010.90
2018-04-22T03:32:25.141Z,1010.86
2018-04-22T03:33:04.114Z,1010.86
2018-04-22T03:34:04.104Z,1010.82
2018-04-22T03:35:25.127Z,1010.83
2018-04-22T03:36:04.141Z,1010.79
2018-04-22T03:37:25.102Z,1010.78
2018-04-22T03:38:04.122Z,1010.76
2018-04-22T03:39:04.082Z,1010.73
2018-04-22T03:40:25.121Z,1010.73
2018-04-22T03:41:04.097Z,1010.72
2018-04-22T03:42:25.102Z,1010.69
2018-04-22T03:43:04.101Z,1010.66
2018-04-22T03:44:04.103Z,1010.67
2018-04-22T03:45:25.111Z,1010.69
2018-04-22T03:46:04.103Z,1010.67
2018-04-22T03:47:25.132Z,1010.67
2018-04-22T03:48:04.083Z,1010.67
2018-04-22T03:49:04.087Z,1010.63
2018-04-22T03:50:25.099Z,1010.61
2018-04-22T03:51:04.072Z,1010.62
2018-04-22T03:52:25.093Z,1010.59
2018-04-22T03:53:04.077Z,1010.56
2018-04-22T03:54:04.130Z,1010.54
2018-04-22T03:55:25.073Z,1010.55
2018-04-22T03:56:04.034Z,1010.50
2018-04-22T03:57:25.053Z,1010.51
2018-04-22T03:58:04.025Z,1010.50
2018-04-22T03:59:04.060Z,1010.48
2018-04-22T04:00:25.035Z,1010.49
2018-04-22T04:01:04.073Z,1010.44
2018-04-22T04:02:25.037Z,1010.41
2018-04-22T04:03:04.025Z,1010.42
2018-04-22T04:04:04.034Z,1010.42
2018-04-22T04:05:25.029Z,1010.41
2018-04-22T04:06:04.003Z,1010.42
2018-04-22T04:07:25.054Z,1010.40
2018-04-22T04:08:04.009Z,1010.41
2018-04-22T04:09:03.994Z,1010.42
2018-04-22T04:10:25.029Z,1010.43
2018-04-22T04:11:04.011Z,1010.41
2018-04-22T04:12:25.019Z,1010.43
2018-04-22T04:13:04.003Z,1010.40
2018-04-22T04:14:04.026Z,1010.40
2018-04-22T04:15:25.003Z,1010.38
2018-04-22T04:16:03.993Z,1010.39
2018-04-22T04:17:24.990Z,1010.38
2018-04-22T04:18:03.995Z,1010.35
2018-04-22T04:19:03.964Z,1010.35
2018-04-22T04:20:24.986Z,1010.31
2018-04-22T04:21:03.982Z,1010.32
2018-04-22T04:22:24.982Z,1010.33
2018-04-22T04:23:03.972Z,1010.33
2018-04-22T04:24:03.983Z,1010.36
2018-04-22T04:25:24.968Z,1010.34
2018-04-22T04:26:03.955Z,1010.31
2018-04-22T04:27:24.960Z,1010.30
2018-04-22T04:28:03.952Z,1010.33
2018-04-22T04:29:03.945Z,1010.31
2018-04-22T04:30:24.959Z,1010.32
2018-04-22T04:31:03.954Z,1010.28
2018-04-22T04:32:24.948Z,1010.31
2018-04-22T04:33:03.929Z,1010.26
2018-04-22T04:34:03.933Z,1010.27
2018-04-22T04:35:24.911Z,1010.27
2018-04-22T04:36:03.971Z,1010.24
2018-04-22T04:37:24.922Z,1010.23
2018-04-22T04:38:03.909Z,1010.23
2018-04-22T04:39:03.902Z,1010.24
2018-04-22T04:40:24.923Z,1010.24
2018-04-22T04:41:03.883Z,1010.21
2018-04-22T04:42:24.902Z,1010.20
2018-04-22T04:43:03.919Z,1010.19
2018-04-22T04:44:03.872Z,1010.18
2018-04-22T04:45:24.893Z,1010.19
2018-04-22T04:46:03.875Z,1010.20
2018-04-22T04:47:24.899Z,1010.19
2018-04-22T04:48:03.880Z,1010.19
2018-04-22T04:49:03.853Z,1010.21
2018-04-22T04:50:24.883Z,1010.18
2018-04-22T04:51:03.864Z,1010.17
2018-04-22T04:52:24.863Z,1010.19
2018-04-22T04:53:03.899Z,1010.21
2018-04-22T04:54:03.863Z,1010.21
2018-04-22T04:55:24.864Z,1010.22
2018-04-22T04:56:03.872Z,1010.21
2018-04-22T04:57:24.850Z,1010.22
2018-04-22T04:58:03.848Z,1010.22
2018-04-22T04:59:03.838Z,1010.24
2018-04-22T05:00:24.888Z,1010.20
2018-04-22T05:01:03.839Z,1010.17
2018-04-22T05:02:24.851Z,1010.22
2018-04-22T05:03:03.835Z,1010.22
2018-04-22T05:04:03.862Z,1010.21
2018-04-22T05:05:24.845Z,1010.25
2018-04-22T05:06:03.835Z,1010.24
2018-04-22T05:07:24.843Z,1010.23
2018-04-22T05:08:03.823Z,1010.20
2018-04-22T05:09:03.826Z,1010.18
2018-04-22T05:10:24.835Z,1010.22
2018-04-22T05:11:03.815Z,1010.16
2018-04-22T05:12:24.790Z,1010.16
2018-04-22T05:13:03.779Z,1010.20
2018-04-22T05:14:03.808Z,1010.18
2018-04-22T05:15:24.820Z,1010.20
2018-04-22T05:16:03.765Z,1010.22
2018-04-22T05:17:24.810Z,1010.22
2018-04-22T05:18:03.841Z,1010.21
2018-04-22T05:19:03.798Z,1010.18
2018-04-22T05:20:24.795Z,1010.17
2018-04-22T05:21:03.800Z,1010.15
2018-04-22T05:22:24.767Z,1010.16
2018-04-22T05:23:03.761Z,1010.19
2018-04-22T05:24:03.786Z,1010.13
2018-04-22T05:25:24.761Z,1010.16
2018-04-22T05:26:03.791Z,1010.16
2018-04-22T05:27:24.796Z,1010.12
2018-04-22T05:28:03.756Z,1010.11
2018-04-22T05:29:03.730Z,1010.11
2018-04-22T05:30:24.763Z,1010.07
2018-04-22T05:31:03.755Z,1010.12
2018-04-22T05:32:24.741Z,1010.11
2018-04-22T05:33:03.735Z,1010.11
2018-04-22T05:34:03.721Z,1010.12
2018-04-22T05:35:24.759Z,1010.08
2018-04-22T05:36:03.745Z,1010.08
2018-04-22T05:37:24.734Z,1010.08
2018-04-22T05:38:03.731Z,1010.13
2018-04-22T05:39:03.698Z,1010.08
2018-04-22T05:40:24.730Z,1010.14
2018-04-22T05:41:03.725Z,1010.10
2018-04-22T05:42:24.745Z,1010.09
2018-04-22T05:43:03.690Z,1010.09
2018-04-22T05:44:03.702Z,1010.09
2018-04-22T05:45:24.737Z,1010.05
2018-04-22T05:46:03.714Z,1010.08
2018-04-22T05:47:24.684Z,1010.12
2018-04-22T05:48:03.664Z,1010.08
2018-04-22T05:49:03.720Z,1010.09
2018-04-22T05:50:24.681Z,1010.07
2018-04-22T05:51:03.719Z,1010.08
2018-04-22T05:52:24.685Z,1010.05
2018-04-22T05:53:03.704Z,1010.10
2018-04-22T05:54:03.676Z,1010.06
2018-04-22T05:55:24.665Z,1010.06
2018-04-22T05:56:03.716Z,1010.04
2018-04-22T05:57:24.647Z,1010.04
2018-04-22T05:58:03.661Z,1010.01
2018-04-22T05:59:03.715Z,1010.02
2018-04-22T06:00:24.670Z,1010.03
2018-04-22T06:01:03.652Z,1010.02
2018-04-22T06:02:24.686Z,1010.01
2018-04-22T06:03:03.653Z,1010.07
2018-04-22T06:04:04.155Z,1010.02
2018-04-22T06:05:24.644Z,1010.02
2018-04-22T06:06:03.642Z,1010.00
2018-04-22T06:07:24.642Z,1010.01
2018-04-22T06:08:03.651Z,1009.94
2018-04-22T06:09:03.647Z,1009.92
2018-04-22T06:10:24.657Z,1009.92
2018-04-22T06:11:03.606Z,1009.96
2018-04-22T06:12:24.652Z,1009.95
2018-04-22T06:13:03.640Z,1009.95
2018-04-22T06:14:03.602Z,1009.94
2018-04-22T06:15:24.637Z,1009.93
2018-04-22T06:16:03.617Z,1009.94
2018-04-22T06:17:24.706Z,1009.90
2018-04-22T06:18:03.584Z,1009.91
2018-04-22T06:19:03.600Z,1009.87
2018-04-22T06:20:24.605Z,1009.89
2018-04-22T06:21:03.581Z,1009.90
2018-04-22T06:22:24.581Z,1009.88
2018-04-22T06:23:03.615Z,1009.83
2018-04-22T06:24:03.561Z,1009.83
2018-04-22T06:25:24.574Z,1009.84
2018-04-22T06:26:03.570Z,1009.82
2018-04-22T06:27:24.584Z,1009.84
2018-04-22T06:28:03.561Z,1009.81
2018-04-22T06:29:03.569Z,1009.83
2018-04-22T06:30:24.593Z,1009.81
2018-04-22T06:31:03.568Z,1009.79
2018-04-22T06:32:24.585Z,1009.78
2018-04-22T06:33:03.567Z,1009.74
2018-04-22T06:34:03.541Z,1009.77
2018-04-22T06:35:24.591Z,1009.70
2018-04-22T06:36:03.569Z,1009.68
2018-04-22T06:37:24.544Z,1009.67
2018-04-22T06:38:03.540Z,1009.66
2018-04-22T06:39:03.551Z,1009.67
2018-04-22T06:40:24.551Z,1009.68
2018-04-22T06:41:04.169Z,1009.65
2018-04-22T06:42:24.539Z,1009.64
2018-04-22T06:43:03.543Z,1009.63
2018-04-22T06:44:03.542Z,1009.62
2018-04-22T06:45:24.540Z,1009.66
2018-04-22T06:46:03.560Z,1009.65
2018-04-22T06:47:24.525Z,1009.66
2018-04-22T06:48:04.460Z,1009.65
2018-04-22T06:49:03.488Z,1009.67
2018-04-22T06:50:24.498Z,1009.67
2018-04-22T06:51:03.515Z,1009.67
2018-04-22T06:52:24.498Z,1009.69
2018-04-22T06:53:03.493Z,1009.72
2018-04-22T06:54:03.492Z,1009.70
2018-04-22T06:55:24.506Z,1009.69
2018-04-22T06:56:03.481Z,1009.70
2018-04-22T06:57:24.486Z,1009.69
2018-04-22T06:58:03.470Z,1009.70
2018-04-22T06:59:03.464Z,1009.69
2018-04-22T07:00:24.766Z,1009.71
2018-04-22T07:01:03.473Z,1009.70
2018-04-22T07:02:24.470Z,1009.74
2018-04-22T07:03:03.461Z,1009.72
2018-04-22T07:04:03.466Z,1009.69
2018-04-22T07:05:24.524Z,1009.71
2018-04-22T07:06:03.451Z,1009.72
2018-04-22T07:07:24.453Z,1009.66
2018-04-22T07:08:03.451Z,1009.75
2018-04-22T07:09:03.457Z,1009.68
2018-04-22T07:10:24.452Z,1009.69
2018-04-22T07:11:03.409Z,1009.68
2018-04-22T07:12:24.443Z,1009.71
2018-04-22T07:13:03.417Z,1009.69
2018-04-22T07:14:03.441Z,1009.70
2018-04-22T07:15:24.464Z,1009.74
2018-04-22T07:16:03.416Z,1009.72
2018-04-22T07:17:24.423Z,1009.74
2018-04-22T07:18:03.437Z,1009.72
2018-04-22T07:19:03.418Z,1009.71
2018-04-22T07:20:24.484Z,1009.73
2018-04-22T07:21:03.416Z,1009.71
2018-04-22T07:22:24.434Z,1009.70
2018-04-22T07:23:03.414Z,1009.71
2018-04-22T07:24:03.432Z,1009.70
2018-04-22T07:25:24.408Z,1009.72
2018-04-22T07:26:03.396Z,1009.67
2018-04-22T07:27:24.391Z,1009.67
2018-04-22T07:28:03.449Z,1009.70
2018-04-22T07:29:03.386Z,1009.68
2018-04-22T07:30:24.367Z,1009.68
2018-04-22T07:31:03.383Z,1009.69
2018-04-22T07:32:24.420Z,1009.70
2018-04-22T07:33:03.363Z,1009.77
2018-04-22T07:34:03.383Z,1009.76
2018-04-22T07:35:24.373Z,1009.77
2018-04-22T07:36:03.399Z,1009.78
2018-04-22T07:37:24.414Z,1009.78
2018-04-22T07:38:03.371Z,1009.81
2018-04-22T07:39:03.331Z,1009.76
2018-04-22T07:40:24.371Z,1009.75
2018-04-22T07:41:04.041Z,1009.76
2018-04-22T07:42:24.369Z,1009.77
2018-04-22T07:43:03.337Z,1009.73
2018-04-22T07:44:03.401Z,1009.72
2018-04-22T07:45:24.357Z,1009.68
2018-04-22T07:46:03.341Z,1009.70
2018-04-22T07:47:24.363Z,1009.69
2018-04-22T07:48:03.339Z,1009.69
2018-04-22T07:49:03.355Z,1009.71
2018-04-22T07:50:24.421Z,1009.72
2018-04-22T07:51:03.303Z,1009.72
2018-04-22T07:52:24.324Z,1009.71
2018-04-22T07:53:03.320Z,1009.73
2018-04-22T07:54:03.323Z,1009.72
2018-04-22T07:55:24.338Z,1009.70
2018-04-22T07:56:03.317Z,1009.71
2018-04-22T07:57:24.323Z,1009.72
2018-04-22T07:58:03.298Z,1009.72
2018-04-22T07:59:03.327Z,1009.74
2018-04-22T08:00:24.309Z,1009.76
2018-04-22T08:01:03.316Z,1009.75
2018-04-22T08:02:24.305Z,1009.77
2018-04-22T08:03:03.277Z,1009.76
2018-04-22T08:04:03.307Z,1009.75
2018-04-22T08:05:24.327Z,1009.73
2018-04-22T08:06:03.296Z,1009.70
2018-04-22T08:07:24.327Z,1009.74
2018-04-22T08:08:03.277Z,1009.67
2018-04-22T08:09:03.303Z,1009.70
2018-04-22T08:10:24.283Z,1009.69
2018-04-22T08:11:03.288Z,1009.67
2018-04-22T08:12:24.274Z,1009.71
2018-04-22T08:13:03.244Z,1009.65
2018-04-22T08:14:03.251Z,1009.66
2018-04-22T08:15:24.229Z,1009.65
2018-04-22T08:16:03.293Z,1009.66
2018-04-22T08:17:24.303Z,1009.65
2018-04-22T08:18:03.256Z,1009.62
2018-04-22T08:19:03.987Z,1009.54
2018-04-22T08:20:24.265Z,1009.57
2018-04-22T08:21:03.253Z,1009.58
2018-04-22T08:22:24.250Z,1009.57
2018-04-22T08:23:03.259Z,1009.66
2018-04-22T08:24:03.230Z,1009.62
2018-04-22T08:25:24.263Z,1009.56
2018-04-22T08:26:03.236Z,1009.55
2018-04-22T08:27:24.202Z,1009.57
2018-04-22T08:28:03.269Z,1009.57
2018-04-22T08:29:03.243Z,1009.59
2018-04-22T08:30:24.195Z,1009.60
2018-04-22T08:31:03.259Z,1009.59
2018-04-22T08:32:24.249Z,1009.61
2018-04-22T08:33:03.223Z,1009.57
2018-04-22T08:34:04.085Z,1009.55
2018-04-22T08:35:24.192Z,1009.51
2018-04-22T08:36:03.204Z,1009.53
2018-04-22T08:37:24.207Z,1009.47
2018-04-22T08:38:03.714Z,1009.44
2018-04-22T08:39:03.217Z,1009.45
2018-04-22T08:40:24.224Z,1009.45
2018-04-22T08:41:03.165Z,1009.44
2018-04-22T08:42:24.944Z,1009.43
2018-04-22T08:43:03.226Z,1009.41
2018-04-22T08:44:03.953Z,1009.37
2018-04-22T08:45:24.948Z,1009.40
2018-04-22T08:46:03.202Z,1009.36
2018-04-22T08:47:24.167Z,1009.39
2018-04-22T08:48:03.152Z,1009.40
2018-04-22T08:49:03.153Z,1009.38
2018-04-22T08:50:24.214Z,1009.37
2018-04-22T08:51:03.181Z,1009.35
2018-04-22T08:52:24.154Z,1009.38
2018-04-22T08:53:03.177Z,1009.38
2018-04-22T08:54:03.160Z,1009.44
2018-04-22T08:55:24.147Z,1009.40
2018-04-22T08:56:03.136Z,1009.37
2018-04-22T08:57:24.164Z,1009.40
2018-04-22T08:58:03.133Z,1009.37
2018-04-22T08:59:03.161Z,1009.31
2018-04-22T09:00:24.198Z,1009.37
2018-04-22T09:01:03.162Z,1009.34
2018-04-22T09:02:24.157Z,1009.32
2018-04-22T09:03:03.155Z,1009.31
2018-04-22T09:04:03.137Z,1009.36
2018-04-22T09:05:24.185Z,1009.34
2018-04-22T09:06:03.153Z,1009.37
2018-04-22T09:07:24.148Z,1009.36
2018-04-22T09:08:03.117Z,1009.36
2018-04-22T09:09:03.174Z,1009.36
2018-04-22T09:10:24.098Z,1009.32
2018-04-22T09:11:03.139Z,1009.29
2018-04-22T09:12:24.141Z,1009.29
2018-04-22T09:13:03.099Z,1009.26
2018-04-22T09:14:03.119Z,1009.25
2018-04-22T09:15:24.078Z,1009.21
2018-04-22T09:16:03.161Z,1009.22
2018-04-22T09:17:24.120Z,1009.28
2018-04-22T09:18:03.092Z,1009.26
2018-04-22T09:19:03.150Z,1009.20
2018-04-22T09:20:24.060Z,1009.25
2018-04-22T09:21:03.082Z,1009.24
2018-04-22T09:22:24.058Z,1009.24
2018-04-22T09:23:03.081Z,1009.27
2018-04-22T09:24:03.095Z,1009.24
2018-04-22T09:25:24.091Z,1009.25
2018-04-22T09:26:03.084Z,1009.28
2018-04-22T09:27:24.066Z,1009.27
2018-04-22T09:28:03.086Z,1009.26
2018-04-22T09:29:03.125Z,1009.28
2018-04-22T09:30:24.089Z,1009.29
2018-04-22T09:31:03.090Z,1009.29
2018-04-22T09:32:24.090Z,1009.24
2018-04-22T09:33:03.072Z,1009.24
2018-04-22T09:34:03.087Z,1009.21
2018-04-22T09:35:24.089Z,1009.21
2018-04-22T09:36:03.040Z,1009.22
2018-04-22T09:37:24.072Z,1009.21
2018-04-22T09:38:03.081Z,1009.22
2018-04-22T09:39:03.089Z,1009.21
2018-04-22T09:40:24.014Z,1009.21
2018-04-22T09:41:03.017Z,1009.17
2018-04-22T09:42:24.014Z,1009.22
2018-04-22T09:43:03.036Z,1009.17
2018-04-22T09:44:03.034Z,1009.20
2018-04-22T09:45:24.024Z,1009.19
2018-04-22T09:46:03.013Z,1009.20
2018-04-22T09:47:24.025Z,1009.19
2018-04-22T09:48:03.027Z,1009.13
2018-04-22T09:49:03.041Z,1009.12
2018-04-22T09:50:24.010Z,1009.08
2018-04-22T09:51:03.084Z,1009.02
2018-04-22T09:52:24.078Z,1009.07
2018-04-22T09:53:03.062Z,1009.04
2018-04-22T09:54:03.077Z,1009.02
2018-04-22T09:55:24.033Z,1009.05
2018-04-22T09:56:03.000Z,1009.02
2018-04-22T09:57:23.998Z,1009.02
2018-04-22T09:58:03.001Z,1008.98
2018-04-22T09:59:02.990Z,1008.95
2018-04-22T10:00:24.010Z,1008.92
2018-04-22T10:01:02.963Z,1008.90
2018-04-22T10:02:24.050Z,1008.89
2018-04-22T10:03:02.960Z,1008.87
2018-04-22T10:04:03.017Z,1008.86
2018-04-22T10:05:23.964Z,1008.89
2018-04-22T10:06:02.970Z,1008.87
2018-04-22T10:07:23.997Z,1008.85
2018-04-22T10:08:02.956Z,1008.82
2018-04-22T10:09:03.019Z,1008.81
2018-04-22T10:10:23.975Z,1008.80
2018-04-22T10:11:03.000Z,1008.79
2018-04-22T10:12:23.929Z,1008.76
2018-04-22T10:13:02.945Z,1008.74
2018-04-22T10:14:02.948Z,1008.74
2018-04-22T10:15:23.964Z,1008.71
2018-04-22T10:16:02.935Z,1008.71
2018-04-22T10:17:23.937Z,1008.69
2018-04-22T10:18:02.908Z,1008.68
2018-04-22T10:19:02.936Z,1008.66
2018-04-22T10:20:23.962Z,1008.66
2018-04-22T10:21:02.926Z,1008.63
2018-04-22T10:22:23.966Z,1008.62
2018-04-22T10:23:02.901Z,1008.61
2018-04-22T10:24:02.935Z,1008.62
2018-04-22T10:25:23.900Z,1008.60
2018-04-22T10:26:02.891Z,1008.54
2018-04-22T10:27:23.935Z,1008.52
2018-04-22T10:28:02.943Z,1008.53
2018-04-22T10:29:02.938Z,1008.51
2018-04-22T10:30:23.910Z,1008.48
2018-04-22T10:31:02.943Z,1008.49
2018-04-22T10:32:23.871Z,1008.52
2018-04-22T10:33:02.893Z,1008.50
2018-04-22T10:34:02.964Z,1008.47
2018-04-22T10:35:23.883Z,1008.47
2018-04-22T10:36:02.858Z,1008.45
2018-04-22T10:37:23.887Z,1008.42
2018-04-22T10:38:02.860Z,1008.43
2018-04-22T10:39:02.879Z,1008.37
2018-04-22T10:40:23.884Z,1008.33
2018-04-22T10:41:02.863Z,1008.31
2018-04-22T10:42:23.867Z,1008.29
2018-04-22T10:43:02.913Z,1008.29
2018-04-22T10:44:02.892Z,1008.24
2018-04-22T10:45:23.840Z,1008.23
2018-04-22T10:46:02.896Z,1008.20
2018-04-22T10:47:23.829Z,1008.23
2018-04-22T10:48:02.846Z,1008.22
2018-04-22T10:49:02.860Z,1008.22
2018-04-22T10:50:23.841Z,1008.26
2018-04-22T10:51:02.869Z,1008.22
2018-04-22T10:52:23.906Z,1008.23
2018-04-22T10:53:02.811Z,1008.22
2018-04-22T10:54:02.817Z,1008.20
2018-04-22T10:55:23.822Z,1008.19
2018-04-22T10:56:02.834Z,1008.17
2018-04-22T10:57:23.866Z,1008.13
2018-04-22T10:58:02.855Z,1008.09
2018-04-22T10:59:02.799Z,1008.07
2018-04-22T11:00:23.817Z,1008.04
2018-04-22T11:01:02.825Z,1008.03
2018-04-22T11:02:23.825Z,1007.98
2018-04-22T11:03:02.809Z,1007.96
2018-04-22T11:04:02.833Z,1007.98
2018-04-22T11:05:23.794Z,1007.94
2018-04-22T11:06:02.812Z,1007.91
2018-04-22T11:07:23.824Z,1007.92
2018-04-22T11:08:02.782Z,1007.90
2018-04-22T11:09:02.758Z,1007.92
2018-04-22T11:10:23.835Z,1007.86
2018-04-22T11:11:02.790Z,1007.84
2018-04-22T11:12:23.830Z,1007.82
2018-04-22T11:13:02.805Z,1007.86
2018-04-22T11:14:02.762Z,1007.84
2018-04-22T11:15:23.826Z,1007.84
2018-04-22T11:16:02.787Z,1007.82
2018-04-22T11:17:23.772Z,1007.83
2018-04-22T11:18:02.844Z,1007.81
2018-04-22T11:19:02.754Z,1007.81
2018-04-22T11:20:23.781Z,1007.80
2018-04-22T11:21:02.806Z,1007.74
2018-04-22T11:22:23.751Z,1007.75
2018-04-22T11:23:02.770Z,1007.75
2018-04-22T11:24:02.807Z,1007.69
2018-04-22T11:25:23.764Z,1007.73
2018-04-22T11:26:02.723Z,1007.64
2018-04-22T11:27:23.765Z,1007.64
2018-04-22T11:28:02.758Z,1007.61
2018-04-22T11:29:02.775Z,1007.58
2018-04-22T11:30:23.798Z,1007.56
2018-04-22T11:31:02.756Z,1007.53
2018-04-22T11:32:23.763Z,1007.51
2018-04-22T11:33:03.554Z,1007.51
2018-04-22T11:34:02.707Z,1007.50
2018-04-22T11:35:24.337Z,1007.48
2018-04-22T11:36:02.721Z,1007.44
2018-04-22T11:37:23.744Z,1007.39
2018-04-22T11:38:02.808Z,1007.38
2018-04-22T11:39:02.761Z,1007.37
2018-04-22T11:40:23.750Z,1007.36
2018-04-22T11:41:02.703Z,1007.31
2018-04-22T11:42:24.424Z,1007.34
2018-04-22T11:43:02.763Z,1007.36
2018-04-22T11:44:03.504Z,1007.37
2018-04-22T11:45:24.707Z,1007.40
2018-04-22T11:46:02.696Z,1007.35
2018-04-22T11:47:23.731Z,1007.35
2018-04-22T11:48:03.277Z,1007.33
2018-04-22T11:49:02.699Z,1007.32
2018-04-22T11:50:23.677Z,1007.35
2018-04-22T11:51:03.621Z,1007.32
2018-04-22T11:52:23.662Z,1007.33
2018-04-22T11:53:02.723Z,1007.31
2018-04-22T11:54:02.676Z,1007.32
2018-04-22T11:55:23.665Z,1007.32
2018-04-22T11:56:02.633Z,1007.30
2018-04-22T11:57:23.681Z,1007.27
2018-04-22T11:58:03.574Z,1007.28
2018-04-22T11:59:02.678Z,1007.27
2018-04-22T12:00:24.339Z,1007.24
2018-04-22T12:01:02.685Z,1007.22
2018-04-22T12:02:23.746Z,1007.15
2018-04-22T12:03:02.654Z,1007.14
2018-04-22T12:04:02.702Z,1007.17
2018-04-22T12:05:23.677Z,1007.11